Orbital elements of PSLV DEB
| Launched | 21 October 2001 |
| Flight ended | – |
| Launch site | Satish Dhawan Space Centre, India (Formerly Sriharikota Launching Range) |
| Owner | India |
| NORAD ID | 27653 |
| Date fetched |
Epoch osculation |
Inc. [°] |
Ecc. | RA asc node [hr] |
Arg Peri. [°] |
Mean anom [°] |
Mean motion [rev/day] |
Abs. mag |
| Date fetched |
Epoch osculation |
Inc. [°] |
Ecc. | RA asc node [hr] |
Arg Peri. [°] |
Mean anom [°] |
Mean motion [rev/day] |
Abs. mag |
| 2026 May 09 17:57 | 2026 May 05 09:50:52 | 98.0866 | 0.00498 | 12.3765 | 269.8661 | 89.6851 | 14.89763 | – |
| 2026 May 08 17:57 | 2026 May 05 09:50:52 | 98.0866 | 0.00498 | 12.3765 | 269.8661 | 89.6851 | 14.89763 | – |
| 2026 May 07 17:58 | 2026 May 05 09:50:52 | 98.0866 | 0.00498 | 12.3765 | 269.8661 | 89.6851 | 14.89763 | – |
| 2026 May 06 17:57 | 2026 May 05 09:50:52 | 98.0866 | 0.00498 | 12.3765 | 269.8661 | 89.6851 | 14.89763 | – |
| 2026 May 05 17:57 | 2026 May 05 09:50:52 | 98.0866 | 0.00498 | 12.3765 | 269.8661 | 89.6851 | 14.89763 | – |
| 2026 May 04 17:57 | 2026 Apr 30 10:33:37 | 98.0878 | 0.00498 | 12.0377 | 286.6626 | 89.6851 | 14.89763 | – |
| 2026 May 03 17:57 | 2026 Apr 30 10:33:37 | 98.0878 | 0.00498 | 12.0377 | 286.6626 | 89.6851 | 14.89763 | – |
| 2026 May 02 17:57 | 2026 Apr 30 10:33:37 | 98.0878 | 0.00498 | 12.0377 | 286.6626 | 89.6851 | 14.89763 | – |
| 2026 May 01 17:56 | 2026 Apr 30 10:33:37 | 98.0878 | 0.00498 | 12.0377 | 286.6626 | 89.6851 | 14.89763 | – |
| 2026 Apr 30 17:56 | 2026 Apr 30 10:33:37 | 98.0878 | 0.00498 | 12.0377 | 286.6626 | 89.6851 | 14.89763 | – |
| 2026 Apr 29 17:57 | 2026 Apr 24 03:01:51 | 98.0888 | 0.00501 | 11.6072 | 307.8807 | 89.6851 | 14.89763 | – |
| 2026 Apr 28 17:56 | 2026 Apr 24 03:01:51 | 98.0888 | 0.00501 | 11.6072 | 307.8807 | 89.6851 | 14.89763 | – |
| 2026 Apr 27 17:58 | 2026 Apr 24 03:01:51 | 98.0888 | 0.00501 | 11.6072 | 307.8807 | 89.6851 | 14.89763 | – |
| 2026 Apr 26 17:58 | 2026 Apr 24 03:01:51 | 98.0888 | 0.00501 | 11.6072 | 307.8807 | 89.6851 | 14.89763 | – |
| 2026 Apr 25 17:58 | 2026 Apr 24 03:01:51 | 98.0888 | 0.00501 | 11.6072 | 307.8807 | 89.6851 | 14.89763 | – |
| 2026 Apr 24 17:59 | 2026 Apr 24 03:01:51 | 98.0888 | 0.00501 | 11.6072 | 307.8807 | 89.6851 | 14.89763 | – |
| 2026 Apr 23 17:57 | 2026 Apr 19 10:11:18 | 98.0895 | 0.00503 | 11.2866 | 323.6583 | 89.6851 | 14.89763 | – |
| 2026 Apr 22 17:57 | 2026 Apr 19 10:11:18 | 98.0895 | 0.00503 | 11.2866 | 323.6583 | 89.6851 | 14.89763 | – |
| 2026 Apr 21 17:57 | 2026 Apr 19 10:11:18 | 98.0895 | 0.00503 | 11.2866 | 323.6583 | 89.6851 | 14.89763 | – |
| 2026 Apr 20 17:57 | 2026 Apr 19 10:11:18 | 98.0895 | 0.00503 | 11.2866 | 323.6583 | 89.6851 | 14.89763 | – |
| 2026 Apr 19 17:58 | 2026 Apr 19 10:11:18 | 98.0895 | 0.00503 | 11.2866 | 323.6583 | 89.6851 | 14.89763 | – |
| 2026 Apr 18 17:56 | 2026 Apr 13 02:39:20 | 98.0900 | 0.00507 | 10.8560 | 344.6556 | 89.6851 | 14.89763 | – |
| 2026 Apr 16 17:57 | 2026 Apr 13 02:39:20 | 98.0900 | 0.00507 | 10.8560 | 344.6556 | 89.6851 | 14.89763 | – |
| 2026 Apr 14 17:57 | 2026 Apr 13 02:39:20 | 98.0900 | 0.00507 | 10.8560 | 344.6556 | 89.6851 | 14.89763 | – |
| 2026 Apr 13 17:57 | 2026 Apr 13 02:39:20 | 98.0900 | 0.00507 | 10.8560 | 344.6556 | 89.6851 | 14.89763 | – |
| 2026 Apr 12 17:57 | 2026 Apr 08 14:38:50 | 98.0906 | 0.00511 | 10.5491 | 359.4382 | 89.6851 | 14.89763 | – |